AirNav   Pilot Hours Calculator
 
 579 users online  

AL43 Henley Ranch Airport
Geiger, Alabama, USA

GOING TO GEIGER?


FAA INFORMATION EFFECTIVE 31 JANUARY 2019

Location

FAA Identifier: AL43
Lat/Long: 32-54-30.4650N / 088-20-00.1200W
32-54.507750N / 088-20.002000W
32.9084625 / -88.3333667
(estimated)
Elevation: 200 ft. / 61 m (estimated)
Variation: 01E (1985)
From city: 4 miles NW of GEIGER, AL
Time zone: UTC -6 (UTC -5 during Daylight Saving Time)
Zip code: 35459

Airport Operations

Airport use: Private use. Permission required prior to landing
Activation date: 06/1983
Control tower: no
ARTCC: MEMPHIS CENTER
FSS: ANNISTON FLIGHT SERVICE STATION
Attendance: UNATNDD
Wind indicator: yes
Segmented circle: yes

Nearby radio navigation aids

VOR radial/distance  VOR name  Freq  Var
EWAr007/33.1KEWANEE VORTAC113.8004E
IGBr161/35.8BIGBEE VORTAC116.2004E
MEIr032/39.7MERIDIAN VORTAC117.0005E

Airport Services

Runway Information

Runway 10/28

Dimensions: 3000 x 50 ft. / 914 x 15 m
Surface: turf
RUNWAY 10  RUNWAY 28
Traffic pattern: leftleft

Airport Ownership and Management from official FAA records

Ownership: Privately-owned
Owner: MARK HENLEY
576 HENLEY DR.
EMELLE, AL 35459
Phone 205-601-9215
Manager: ALAN HENLEY
576 HENLEY DR
EMELLE, AL 35459
Phone 205-455-2405

Airport Operational Statistics

Aircraft based on the field: 9
Single engine airplanes: 7
Multi engine airplanes: 1
Helicopters: 1
    

Additional Remarks

CARETAKER - LOUIS WATT 205-601-9215.

Instrument Procedures

There are no published instrument procedures at AL43.

Some nearby airports with instrument procedures:

KAIV - George Downer Airport (14 nm NE)
KNMM - Meridian Naval Air Station (Mc Cain Field) (24 nm SW)
KNJW - Joe Williams Naval Outlying Field (26 nm W)
KDYA - Demopolis Regional Airport (33 nm SE)
3M8 - North Pickens Airport (33 nm NE)
 
Loc | Ops | Rwys | IFR | FBO | Links
Com | Nav | Svcs | Stats | Notes
Area around AL43 (Henley Ranch Airport)
 
Road maps at: MapQuest Bing Google
 
Aerial photo
No photo
 
Sectional chart

 
Airport distance calculator
Flying to Henley Ranch Airport? Find the distance to fly.

From to AL43

Sunrise and sunset
Times for 22-Feb-2019
 Local
(UTC-6)
 Zulu
(UTC)
Morning civil twilight06:0512:05
Sunrise06:3012:30
Sunset17:4323:43
Evening civil twilight18:0800:08

Current date and time
Zulu (UTC)  23-Feb-2019 05:00:19
Local (UTC-6)  22-Feb-2019 23:00:19
 
METAR
KNMM 
25nm SW 
230446Z AUTO 11003KT 3/4SM BR VV003 16/16 A3004 RMK AO2 RAE09 P0000 T01610156 $
KDYA 
33nm SE 
230455Z AUTO 00000KT 5SM HZ OVC007 A3004 RMK AO2
KGTR 
35nm N 
230356Z AUTO 09008KT 10SM OVC006 15/14 A3007 RMK AO2 SLP183 T01500139
KMEI 
40nm SW 
230358Z 13004KT 9SM OVC004 19/18 A3005 RMK AO2 RAB07E33 SLP173 P0001 T01940178
KTCL 
41nm NE 
230453Z AUTO 05003KT 10SM OVC018 16/14 A3006 RMK AO2 RAB40E50 SLP178 P0000 T01610144
KSTF 
41nm NW 
230455Z AUTO 11008KT 5SM OVC003 14/13 A3003 RMK AO2 PWINO
KCBM 
44nm N 
230356Z AUTO 13008KT 10SM OVC009 15/14 A3007 RMK AO2 SLP185 T01510138
TAF
KNMM 
25nm SW 
2223/2323 VRB04KT 6000 BR OVC004 551809 552709 533605 QNH2999INS FM230600 16006KT 4800 BR OVC003 WS020/19035 510004 QNH2994INS FM231400 17008KT 9999 OVC005 WS020/20035 510004 QNH2994INS FM231700 19012G18KT 9999 VCSH SCT015 BKN025 OVC035 510004 QNH2981INS AUTOMATED SENSOR METWATCH 2223 TIL 2417 T16/2300Z T27/2321Z FN20035
NOTAMs
Click for the latest NOTAMs
NOTAMs are issued by the DoD/FAA and will open in a separate window not controlled by AirNav.

 

 
 

Would you like to see your business listed on this page?

 If your business provides an interesting product or service to pilots, flight crews, aircraft, or users of the Henley Ranch Airport, you should consider listing it here.  To start the listing process, click on the button below
 
Add a business
 

Other Pages about Henley Ranch Airport

Update a link
 
Copyright © AirNav, LLC. All rights reserved. Privacy Policy  Contact